sensor_id;sensor_type;location;lat;lon;timestamp;temperature;humidity
10662;DHT22;5379;51.034;7.006;2023-04-30T04:31:28;10.20;99.90
10662;DHT22;5379;51.034;7.006;2023-04-30T04:33:59;10.20;99.90
10662;DHT22;5379;51.034;7.006;2023-04-30T04:36:26;10.30;99.90
10662;DHT22;5379;51.034;7.006;2023-04-30T04:38:55;10.30;99.90
10662;DHT22;5379;51.034;7.006;2023-04-30T04:41:22;10.30;99.90
10662;DHT22;5379;51.034;7.006;2023-04-30T04:43:51;10.30;99.90
10662;DHT22;5379;51.034;7.006;2023-04-30T04:46:18;10.30;99.90
10662;DHT22;5379;51.034;7.006;2023-04-30T04:48:46;10.40;99.90
10662;DHT22;5379;51.034;7.006;2023-04-30T04:51:13;10.30;99.90
10662;DHT22;5379;51.034;7.006;2023-04-30T04:53:40;10.40;99.90
10662;DHT22;5379;51.034;7.006;2023-04-30T04:56:07;10.40;99.90
10662;DHT22;5379;51.034;7.006;2023-04-30T04:58:34;10.50;99.90
10662;DHT22;5379;51.034;7.006;2023-04-30T05:01:01;10.40;99.90
10662;DHT22;5379;51.034;7.006;2023-04-30T05:03:30;10.50;99.90
10662;DHT22;5379;51.034;7.006;2023-04-30T05:05:58;10.60;99.90
10662;DHT22;5379;51.034;7.006;2023-04-30T05:08:25;10.70;99.90
10662;DHT22;5379;51.034;7.006;2023-04-30T05:10:52;10.70;99.90
10662;DHT22;5379;51.034;7.006;2023-04-30T05:13:19;10.80;99.90
10662;DHT22;5379;51.034;7.006;2023-04-30T05:15:46;10.80;99.90
10662;DHT22;5379;51.034;7.006;2023-04-30T05:18:13;10.90;99.90
10662;DHT22;5379;51.034;7.006;2023-04-30T05:20:40;11.10;99.90
10662;DHT22;5379;51.034;7.006;2023-04-30T05:23:08;11.10;99.90
10662;DHT22;5379;51.034;7.006;2023-04-30T05:25:35;11.00;99.90
10662;DHT22;5379;51.034;7.006;2023-04-30T05:28:02;11.00;99.90
10662;DHT22;5379;51.034;7.006;2023-04-30T05:30:29;11.10;99.90
10662;DHT22;5379;51.034;7.006;2023-04-30T05:32:57;11.20;99.90
10662;DHT22;5379;51.034;7.006;2023-04-30T05:35:24;11.30;99.90
10662;DHT22;5379;51.034;7.006;2023-04-30T05:37:51;11.50;99.90
10662;DHT22;5379;51.034;7.006;2023-04-30T05:40:19;11.60;99.90
10662;DHT22;5379;51.034;7.006;2023-04-30T05:42:46;11.70;99.90
10662;DHT22;5379;51.034;7.006;2023-04-30T05:45:13;11.80;99.90
10662;DHT22;5379;51.034;7.006;2023-04-30T05:47:41;11.90;99.90
10662;DHT22;5379;51.034;7.006;2023-04-30T05:50:09;11.90;99.90
10662;DHT22;5379;51.034;7.006;2023-04-30T05:52:36;12.00;99.90
10662;DHT22;5379;51.034;7.006;2023-04-30T05:55:03;12.10;99.90
10662;DHT22;5379;51.034;7.006;2023-04-30T05:57:31;12.40;99.90
10662;DHT22;5379;51.034;7.006;2023-04-30T05:59:59;12.40;99.90
10662;DHT22;5379;51.034;7.006;2023-04-30T06:02:26;10.40;99.90
10662;DHT22;5379;51.034;7.006;2023-04-30T06:04:53;12.60;99.90
10662;DHT22;5379;51.034;7.006;2023-04-30T06:07:20;12.80;99.90
10662;DHT22;5379;51.034;7.006;2023-04-30T06:09:47;12.90;99.90
10662;DHT22;5379;51.034;7.006;2023-04-30T06:12:14;13.00;99.90
10662;DHT22;5379;51.034;7.006;2023-04-30T06:14:42;13.10;99.90
10662;DHT22;5379;51.034;7.006;2023-04-30T06:17:10;13.10;99.90
10662;DHT22;5379;51.034;7.006;2023-04-30T06:19:37;13.10;99.90
10662;DHT22;5379;51.034;7.006;2023-04-30T06:22:04;13.20;99.90
10662;DHT22;5379;51.034;7.006;2023-04-30T06:24:31;13.20;99.90
10662;DHT22;5379;51.034;7.006;2023-04-30T06:26:58;13.40;99.90
10662;DHT22;5379;51.034;7.006;2023-04-30T06:29:25;13.70;99.90
10662;DHT22;5379;51.034;7.006;2023-04-30T06:31:54;13.80;99.90
10662;DHT22;5379;51.034;7.006;2023-04-30T06:34:21;13.90;99.90
10662;DHT22;5379;51.034;7.006;2023-04-30T06:36:48;14.00;99.90
10662;DHT22;5379;51.034;7.006;2023-04-30T06:39:15;13.80;99.90
10662;DHT22;5379;51.034;7.006;2023-04-30T06:41:42;13.80;99.90
10662;DHT22;5379;51.034;7.006;2023-04-30T06:44:10;13.90;99.90
10662;DHT22;5379;51.034;7.006;2023-04-30T06:46:38;14.20;99.90
10662;DHT22;5379;51.034;7.006;2023-04-30T06:49:06;14.20;99.90
10662;DHT22;5379;51.034;7.006;2023-04-30T06:51:33;14.20;99.90
10662;DHT22;5379;51.034;7.006;2023-04-30T06:54:00;14.20;99.90
10662;DHT22;5379;51.034;7.006;2023-04-30T06:56:27;14.50;99.90
10662;DHT22;5379;51.034;7.006;2023-04-30T06:58:54;14.50;99.90
10662;DHT22;5379;51.034;7.006;2023-04-30T07:01:21;14.70;99.90
10662;DHT22;5379;51.034;7.006;2023-04-30T07:03:47;14.80;99.90
10662;DHT22;5379;51.034;7.006;2023-04-30T07:06:17;14.80;99.90
10662;DHT22;5379;51.034;7.006;2023-04-30T07:08:44;14.80;99.90
10662;DHT22;5379;51.034;7.006;2023-04-30T07:11:11;15.00;99.90
10662;DHT22;5379;51.034;7.006;2023-04-30T07:13:38;15.20;99.90
10662;DHT22;5379;51.034;7.006;2023-04-30T07:16:05;15.20;99.90
10662;DHT22;5379;51.034;7.006;2023-04-30T07:18:34;15.20;99.90
10662;DHT22;5379;51.034;7.006;2023-04-30T07:21:01;15.20;99.90
10662;DHT22;5379;51.034;7.006;2023-04-30T07:23:29;15.20;99.90
10662;DHT22;5379;51.034;7.006;2023-04-30T07:25:56;15.20;99.90
10662;DHT22;5379;51.034;7.006;2023-04-30T07:28:23;15.30;99.90
10662;DHT22;5379;51.034;7.006;2023-04-30T07:30:50;15.50;99.90
10662;DHT22;5379;51.034;7.006;2023-04-30T07:33:18;15.60;99.90
10662;DHT22;5379;51.034;7.006;2023-04-30T07:35:44;15.70;99.90
10662;DHT22;5379;51.034;7.006;2023-04-30T07:38:11;16.00;99.90
10662;DHT22;5379;51.034;7.006;2023-04-30T07:40:40;16.10;99.90
10662;DHT22;5379;51.034;7.006;2023-04-30T07:43:07;16.10;99.90
10662;DHT22;5379;51.034;7.006;2023-04-30T07:45:34;16.20;99.80
10662;DHT22;5379;51.034;7.006;2023-04-30T07:48:02;16.30;99.90
10662;DHT22;5379;51.034;7.006;2023-04-30T07:50:29;16.60;99.90
10662;DHT22;5379;51.034;7.006;2023-04-30T07:52:58;16.70;99.90
10662;DHT22;5379;51.034;7.006;2023-04-30T07:55:25;16.70;99.90
10662;DHT22;5379;51.034;7.006;2023-04-30T07:57:53;16.70;99.80
10662;DHT22;5379;51.034;7.006;2023-04-30T08:00:21;16.50;98.90
10662;DHT22;5379;51.034;7.006;2023-04-30T08:02:48;16.60;99.10
10662;DHT22;5379;51.034;7.006;2023-04-30T08:05:15;16.70;98.70
10662;DHT22;5379;51.034;7.006;2023-04-30T08:07:41;16.90;99.50
10662;DHT22;5379;51.034;7.006;2023-04-30T08:10:09;17.20;99.40
10662;DHT22;5379;51.034;7.006;2023-04-30T08:12:36;17.30;98.60
10662;DHT22;5379;51.034;7.006;2023-04-30T08:15:06;17.50;98.40
10662;DHT22;5379;51.034;7.006;2023-04-30T08:17:33;17.50;98.50
10662;DHT22;5379;51.034;7.006;2023-04-30T08:20:01;17.90;99.90
10662;DHT22;5379;51.034;7.006;2023-04-30T08:22:29;18.10;98.00
10662;DHT22;5379;51.034;7.006;2023-04-30T08:24:56;18.20;97.80
10662;DHT22;5379;51.034;7.006;2023-04-30T08:27:26;18.20;97.30
10662;DHT22;5379;51.034;7.006;2023-04-30T08:29:53;18.00;97.40
10662;DHT22;5379;51.034;7.006;2023-04-30T08:32:21;17.90;98.20
10662;DHT22;5379;51.034;7.006;2023-04-30T08:34:48;18.60;98.00
10662;DHT22;5379;51.034;7.006;2023-04-30T08:37:16;19.20;99.90
10662;DHT22;5379;51.034;7.006;2023-04-30T08:39:43;19.10;96.40
10662;DHT22;5379;51.034;7.006;2023-04-30T08:42:13;18.60;96.10
10662;DHT22;5379;51.034;7.006;2023-04-30T08:44:40;18.50;96.00
10662;DHT22;5379;51.034;7.006;2023-04-30T08:47:09;18.40;96.30
10662;DHT22;5379;51.034;7.006;2023-04-30T08:49:40;18.80;97.40
10662;DHT22;5379;51.034;7.006;2023-04-30T08:52:07;18.50;96.30
10662;DHT22;5379;51.034;7.006;2023-04-30T08:54:35;18.50;97.10
10662;DHT22;5379;51.034;7.006;2023-04-30T08:57:03;18.60;95.80
10662;DHT22;5379;51.034;7.006;2023-04-30T08:59:31;18.20;95.80
10662;DHT22;5379;51.034;7.006;2023-04-30T09:01:59;18.60;95.40
10662;DHT22;5379;51.034;7.006;2023-04-30T09:04:26;18.70;94.80
10662;DHT22;5379;51.034;7.006;2023-04-30T09:06:55;18.50;94.30
10662;DHT22;5379;51.034;7.006;2023-04-30T09:09:27;18.50;94.40
10662;DHT22;5379;51.034;7.006;2023-04-30T09:12:10;19.20;96.10
10662;DHT22;5379;51.034;7.006;2023-04-30T09:14:38;19.20;95.40
10662;DHT22;5379;51.034;7.006;2023-04-30T09:17:06;18.60;94.10
10662;DHT22;5379;51.034;7.006;2023-04-30T09:19:34;19.50;96.20
10662;DHT22;5379;51.034;7.006;2023-04-30T09:22:20;19.50;98.10
10662;DHT22;5379;51.034;7.006;2023-04-30T09:24:48;20.30;96.40
10662;DHT22;5379;51.034;7.006;2023-04-30T09:27:16;20.10;93.80
10662;DHT22;5379;51.034;7.006;2023-04-30T09:29:44;19.90;95.80
10662;DHT22;5379;51.034;7.006;2023-04-30T09:32:11;19.90;95.80
10662;DHT22;5379;51.034;7.006;2023-04-30T09:34:39;20.20;96.20
10662;DHT22;5379;51.034;7.006;2023-04-30T09:37:08;19.60;93.00
10662;DHT22;5379;51.034;7.006;2023-04-30T09:39:47;19.30;93.60
10662;DHT22;5379;51.034;7.006;2023-04-30T09:42:15;19.90;96.10
10662;DHT22;5379;51.034;7.006;2023-04-30T09:44:42;20.70;98.10
10662;DHT22;5379;51.034;7.006;2023-04-30T09:47:14;20.80;94.70
10662;DHT22;5379;51.034;7.006;2023-04-30T09:49:42;20.40;94.00
10662;DHT22;5379;51.034;7.006;2023-04-30T09:52:10;20.70;95.80
10662;DHT22;5379;51.034;7.006;2023-04-30T09:54:37;19.80;94.10
10662;DHT22;5379;51.034;7.006;2023-04-30T09:57:08;20.00;95.10
10662;DHT22;5379;51.034;7.006;2023-04-30T09:59:36;19.70;94.40
10662;DHT22;5379;51.034;7.006;2023-04-30T10:02:05;19.40;96.20
10662;DHT22;5379;51.034;7.006;2023-04-30T10:04:33;20.30;95.80
10662;DHT22;5379;51.034;7.006;2023-04-30T10:07:04;20.90;97.60
10662;DHT22;5379;51.034;7.006;2023-04-30T10:09:38;21.20;97.20
10662;DHT22;5379;51.034;7.006;2023-04-30T10:12:13;21.10;94.90
10662;DHT22;5379;51.034;7.006;2023-04-30T10:14:46;20.30;92.70
10662;DHT22;5379;51.034;7.006;2023-04-30T10:17:16;20.10;93.20
10662;DHT22;5379;51.034;7.006;2023-04-30T10:19:47;20.00;93.40
10662;DHT22;5379;51.034;7.006;2023-04-30T10:22:14;19.90;92.90
10662;DHT22;5379;51.034;7.006;2023-04-30T10:24:42;19.70;93.50
10662;DHT22;5379;51.034;7.006;2023-04-30T10:27:11;19.50;93.70
10662;DHT22;5379;51.034;7.006;2023-04-30T10:29:38;19.50;93.50
10662;DHT22;5379;51.034;7.006;2023-04-30T10:32:05;19.20;93.50
10662;DHT22;5379;51.034;7.006;2023-04-30T10:34:40;19.20;93.80
10662;DHT22;5379;51.034;7.006;2023-04-30T10:37:19;19.70;94.20
10662;DHT22;5379;51.034;7.006;2023-04-30T10:39:48;20.10;93.70
10662;DHT22;5379;51.034;7.006;2023-04-30T10:42:17;20.30;96.30
10662;DHT22;5379;51.034;7.006;2023-04-30T10:44:44;20.60;95.10
10662;DHT22;5379;51.034;7.006;2023-04-30T10:47:12;20.10;93.00
10662;DHT22;5379;51.034;7.006;2023-04-30T10:49:39;19.80;92.80
10662;DHT22;5379;51.034;7.006;2023-04-30T10:52:10;20.20;94.00
10662;DHT22;5379;51.034;7.006;2023-04-30T10:54:37;20.40;94.00
10662;DHT22;5379;51.034;7.006;2023-04-30T10:57:09;21.10;96.30
10662;DHT22;5379;51.034;7.006;2023-04-30T10:59:41;21.50;94.60
10662;DHT22;5379;51.034;7.006;2023-04-30T11:02:10;21.10;93.70
10662;DHT22;5379;51.034;7.006;2023-04-30T11:05:10;21.10;92.40
10662;DHT22;5379;51.034;7.006;2023-04-30T11:07:45;20.90;92.40
10662;DHT22;5379;51.034;7.006;2023-04-30T11:10:14;20.90;92.70
10662;DHT22;5379;51.034;7.006;2023-04-30T11:12:46;20.70;92.80
10662;DHT22;5379;51.034;7.006;2023-04-30T11:15:17;20.70;93.10
10662;DHT22;5379;51.034;7.006;2023-04-30T11:17:45;20.50;95.00
10662;DHT22;5379;51.034;7.006;2023-04-30T11:20:17;20.80;92.40
10662;DHT22;5379;51.034;7.006;2023-04-30T11:22:45;21.00;94.70
10662;DHT22;5379;51.034;7.006;2023-04-30T11:25:12;21.10;93.10
10662;DHT22;5379;51.034;7.006;2023-04-30T11:27:44;20.70;92.60
10662;DHT22;5379;51.034;7.006;2023-04-30T11:30:13;20.90;92.90
10662;DHT22;5379;51.034;7.006;2023-04-30T11:32:44;20.30;91.70
10662;DHT22;5379;51.034;7.006;2023-04-30T11:35:12;21.10;96.50
10662;DHT22;5379;51.034;7.006;2023-04-30T11:37:41;21.50;96.00
10662;DHT22;5379;51.034;7.006;2023-04-30T11:40:10;21.60;95.00
10662;DHT22;5379;51.034;7.006;2023-04-30T11:42:38;21.80;96.10
10662;DHT22;5379;51.034;7.006;2023-04-30T11:45:06;21.80;96.10
10662;DHT22;5379;51.034;7.006;2023-04-30T11:47:45;21.60;91.80
10662;DHT22;5379;51.034;7.006;2023-04-30T11:53:45;21.40;95.30
10662;DHT22;5379;51.034;7.006;2023-04-30T11:56:13;21.70;96.00
10662;DHT22;5379;51.034;7.006;2023-04-30T11:58:40;21.50;96.10
10662;DHT22;5379;51.034;7.006;2023-04-30T12:01:07;21.60;96.00
10662;DHT22;5379;51.034;7.006;2023-04-30T12:03:43;21.50;96.00
10662;DHT22;5379;51.034;7.006;2023-04-30T12:06:11;21.50;94.80
10662;DHT22;5379;51.034;7.006;2023-04-30T12:08:40;21.50;95.60
10662;DHT22;5379;51.034;7.006;2023-04-30T12:11:19;21.60;93.10
10662;DHT22;5379;51.034;7.006;2023-04-30T12:13:50;21.90;95.70
10662;DHT22;5379;51.034;7.006;2023-04-30T12:16:16;22.10;95.70
10662;DHT22;5379;51.034;7.006;2023-04-30T12:18:45;22.00;94.30
10662;DHT22;5379;51.034;7.006;2023-04-30T12:21:13;22.20;94.20
10662;DHT22;5379;51.034;7.006;2023-04-30T12:23:40;22.30;93.00
10662;DHT22;5379;51.034;7.006;2023-04-30T12:26:07;22.10;91.40
10662;DHT22;5379;51.034;7.006;2023-04-30T12:28:34;21.30;90.30
10662;DHT22;5379;51.034;7.006;2023-04-30T12:31:01;22.00;95.80
10662;DHT22;5379;51.034;7.006;2023-04-30T12:33:30;21.90;91.40
10662;DHT22;5379;51.034;7.006;2023-04-30T12:35:59;21.30;90.40
10662;DHT22;5379;51.034;7.006;2023-04-30T12:38:26;21.20;90.30
10662;DHT22;5379;51.034;7.006;2023-04-30T12:40:53;21.00;90.20
10662;DHT22;5379;51.034;7.006;2023-04-30T12:43:20;21.00;90.30
10662;DHT22;5379;51.034;7.006;2023-04-30T12:45:49;20.90;90.20
10662;DHT22;5379;51.034;7.006;2023-04-30T12:48:17;21.20;92.20
10662;DHT22;5379;51.034;7.006;2023-04-30T12:50:51;21.30;90.50
10662;DHT22;5379;51.034;7.006;2023-04-30T12:53:20;21.40;92.20
10662;DHT22;5379;51.034;7.006;2023-04-30T12:56:10;20.90;91.40
10662;DHT22;5379;51.034;7.006;2023-04-30T12:58:38;21.30;93.30
10662;DHT22;5379;51.034;7.006;2023-04-30T13:01:10;21.70;94.60
10662;DHT22;5379;51.034;7.006;2023-04-30T13:03:38;21.90;93.80
10662;DHT22;5379;51.034;7.006;2023-04-30T13:06:05;21.60;90.50
10662;DHT22;5379;51.034;7.006;2023-04-30T13:08:34;21.70;90.20
10662;DHT22;5379;51.034;7.006;2023-04-30T13:11:01;22.40;95.30
10662;DHT22;5379;51.034;7.006;2023-04-30T13:13:28;22.00;94.00
10662;DHT22;5379;51.034;7.006;2023-04-30T13:15:55;22.40;95.40
10662;DHT22;5379;51.034;7.006;2023-04-30T13:18:22;21.70;89.60
10662;DHT22;5379;51.034;7.006;2023-04-30T13:20:49;21.80;90.40
10662;DHT22;5379;51.034;7.006;2023-04-30T13:23:16;22.00;90.80
10662;DHT22;5379;51.034;7.006;2023-04-30T13:25:45;22.20;89.90
10662;DHT22;5379;51.034;7.006;2023-04-30T13:28:12;22.30;95.60
10662;DHT22;5379;51.034;7.006;2023-04-30T13:30:39;22.00;92.50
10662;DHT22;5379;51.034;7.006;2023-04-30T13:33:06;21.40;91.10
10662;DHT22;5379;51.034;7.006;2023-04-30T13:35:33;21.10;91.10
10662;DHT22;5379;51.034;7.006;2023-04-30T13:38:00;20.80;91.00
10662;DHT22;5379;51.034;7.006;2023-04-30T13:40:27;20.90;92.90
10662;DHT22;5379;51.034;7.006;2023-04-30T13:42:55;21.30;90.80
10662;DHT22;5379;51.034;7.006;2023-04-30T13:45:22;22.00;95.50
10662;DHT22;5379;51.034;7.006;2023-04-30T13:47:49;22.30;92.50
10662;DHT22;5379;51.034;7.006;2023-04-30T13:50:18;21.80;90.20
10662;DHT22;5379;51.034;7.006;2023-04-30T13:52:45;21.50;89.90
10662;DHT22;5379;51.034;7.006;2023-04-30T13:55:12;21.50;90.30
10662;DHT22;5379;51.034;7.006;2023-04-30T13:57:39;21.90;94.40
10662;DHT22;5379;51.034;7.006;2023-04-30T14:00:08;22.90;91.20
10662;DHT22;5379;51.034;7.006;2023-04-30T14:02:36;21.50;90.40
10662;DHT22;5379;51.034;7.006;2023-04-30T14:05:05;22.00;96.40
10662;DHT22;5379;51.034;7.006;2023-04-30T14:07:32;22.20;92.50
10662;DHT22;5379;51.034;7.006;2023-04-30T14:10:00;21.80;91.80
10662;DHT22;5379;51.034;7.006;2023-04-30T14:12:26;22.00;95.80
10662;DHT22;5379;51.034;7.006;2023-04-30T14:14:58;21.90;94.10
10662;DHT22;5379;51.034;7.006;2023-04-30T14:17:26;22.00;96.70
10662;DHT22;5379;51.034;7.006;2023-04-30T14:19:54;22.10;96.70
10662;DHT22;5379;51.034;7.006;2023-04-30T14:22:21;22.30;96.00
10662;DHT22;5379;51.034;7.006;2023-04-30T14:24:50;22.40;93.30
10662;DHT22;5379;51.034;7.006;2023-04-30T14:27:17;21.80;92.30
10662;DHT22;5379;51.034;7.006;2023-04-30T14:29:44;22.40;96.30
10662;DHT22;5379;51.034;7.006;2023-04-30T14:32:12;22.70;96.20
10662;DHT22;5379;51.034;7.006;2023-04-30T14:34:41;22.80;96.80
10662;DHT22;5379;51.034;7.006;2023-04-30T14:37:08;22.50;94.80
10662;DHT22;5379;51.034;7.006;2023-04-30T14:39:35;22.40;92.20
10662;DHT22;5379;51.034;7.006;2023-04-30T14:42:02;22.20;96.40
10662;DHT22;5379;51.034;7.006;2023-04-30T14:44:29;21.90;94.70
10662;DHT22;5379;51.034;7.006;2023-04-30T14:46:57;21.50;91.30
10662;DHT22;5379;51.034;7.006;2023-04-30T14:49:24;21.10;90.80
10662;DHT22;5379;51.034;7.006;2023-04-30T14:51:52;21.70;95.30
10662;DHT22;5379;51.034;7.006;2023-04-30T14:54:19;21.90;91.60
10662;DHT22;5379;51.034;7.006;2023-04-30T14:56:46;22.10;93.80
10662;DHT22;5379;51.034;7.006;2023-04-30T14:59:14;21.80;90.20
10662;DHT22;5379;51.034;7.006;2023-04-30T15:01:41;21.70;90.40
10662;DHT22;5379;51.034;7.006;2023-04-30T15:04:07;21.90;90.90
10662;DHT22;5379;51.034;7.006;2023-04-30T15:06:34;22.00;91.30
10662;DHT22;5379;51.034;7.006;2023-04-30T15:09:03;22.00;91.20
10662;DHT22;5379;51.034;7.006;2023-04-30T15:11:31;22.00;91.50
10662;DHT22;5379;51.034;7.006;2023-04-30T15:13:57;22.50;93.80
10662;DHT22;5379;51.034;7.006;2023-04-30T15:16:24;22.00;92.30
10662;DHT22;5379;51.034;7.006;2023-04-30T15:18:52;22.30;92.40
10662;DHT22;5379;51.034;7.006;2023-04-30T15:21:19;21.90;93.20
10662;DHT22;5379;51.034;7.006;2023-04-30T15:23:46;21.80;90.90
10662;DHT22;5379;51.034;7.006;2023-04-30T15:26:14;21.40;91.30
10662;DHT22;5379;51.034;7.006;2023-04-30T15:28:41;21.30;92.10
10662;DHT22;5379;51.034;7.006;2023-04-30T15:31:08;21.70;92.60
10662;DHT22;5379;51.034;7.006;2023-04-30T15:33:35;21.90;91.70
10662;DHT22;5379;51.034;7.006;2023-04-30T15:36:06;21.80;92.10
10662;DHT22;5379;51.034;7.006;2023-04-30T15:38:33;21.60;92.30
10662;DHT22;5379;51.034;7.006;2023-04-30T15:41:00;21.60;92.30
10662;DHT22;5379;51.034;7.006;2023-04-30T15:43:29;21.70;92.30
10662;DHT22;5379;51.034;7.006;2023-04-30T15:45:57;22.00;92.00
10662;DHT22;5379;51.034;7.006;2023-04-30T15:48:24;21.60;92.00
10662;DHT22;5379;51.034;7.006;2023-04-30T15:50:52;21.70;92.30
10662;DHT22;5379;51.034;7.006;2023-04-30T15:53:20;21.80;92.00
10662;DHT22;5379;51.034;7.006;2023-04-30T15:55:48;21.70;92.10
10662;DHT22;5379;51.034;7.006;2023-04-30T15:58:15;21.70;92.30
10662;DHT22;5379;51.034;7.006;2023-04-30T16:00:44;21.20;91.80
10662;DHT22;5379;51.034;7.006;2023-04-30T16:03:10;22.00;92.60
10662;DHT22;5379;51.034;7.006;2023-04-30T16:05:38;22.00;93.50
10662;DHT22;5379;51.034;7.006;2023-04-30T16:08:07;22.20;93.50
10662;DHT22;5379;51.034;7.006;2023-04-30T16:10:34;21.70;91.70
10662;DHT22;5379;51.034;7.006;2023-04-30T16:13:01;22.10;92.20
10662;DHT22;5379;51.034;7.006;2023-04-30T16:15:28;21.80;91.70
10662;DHT22;5379;51.034;7.006;2023-04-30T16:17:57;21.70;91.90
10662;DHT22;5379;51.034;7.006;2023-04-30T16:20:24;21.90;92.20
10662;DHT22;5379;51.034;7.006;2023-04-30T16:22:53;22.30;95.50
10662;DHT22;5379;51.034;7.006;2023-04-30T16:25:21;22.30;92.30
10662;DHT22;5379;51.034;7.006;2023-04-30T16:27:48;21.90;95.10
10662;DHT22;5379;51.034;7.006;2023-04-30T16:30:16;21.70;92.30
10662;DHT22;5379;51.034;7.006;2023-04-30T16:32:43;21.40;92.40
10662;DHT22;5379;51.034;7.006;2023-04-30T16:35:11;21.40;92.20
10662;DHT22;5379;51.034;7.006;2023-04-30T16:37:38;21.30;92.90
10662;DHT22;5379;51.034;7.006;2023-04-30T16:40:06;21.60;94.80
10662;DHT22;5379;51.034;7.006;2023-04-30T16:42:34;21.60;91.80
10662;DHT22;5379;51.034;7.006;2023-04-30T16:45:01;21.30;93.30
10662;DHT22;5379;51.034;7.006;2023-04-30T16:47:28;21.60;96.70
10662;DHT22;5379;51.034;7.006;2023-04-30T16:49:56;21.90;92.50
10662;DHT22;5379;51.034;7.006;2023-04-30T16:52:25;22.10;96.50
10662;DHT22;5379;51.034;7.006;2023-04-30T16:54:53;22.30;92.10
10662;DHT22;5379;51.034;7.006;2023-04-30T16:57:21;22.10;92.20
10662;DHT22;5379;51.034;7.006;2023-04-30T16:59:49;22.10;92.40
10662;DHT22;5379;51.034;7.006;2023-04-30T17:02:16;21.90;92.40
10662;DHT22;5379;51.034;7.006;2023-04-30T17:04:43;21.60;92.50
10662;DHT22;5379;51.034;7.006;2023-04-30T17:07:10;21.60;95.10
10662;DHT22;5379;51.034;7.006;2023-04-30T17:09:38;21.90;92.70
10662;DHT22;5379;51.034;7.006;2023-04-30T17:12:06;22.00;92.60
10662;DHT22;5379;51.034;7.006;2023-04-30T17:14:33;21.60;92.30
10662;DHT22;5379;51.034;7.006;2023-04-30T17:17:00;21.50;92.90
10662;DHT22;5379;51.034;7.006;2023-04-30T17:19:28;21.20;92.90
10662;DHT22;5379;51.034;7.006;2023-04-30T17:21:55;21.40;93.30
10662;DHT22;5379;51.034;7.006;2023-04-30T17:24:22;21.70;93.10
10662;DHT22;5379;51.034;7.006;2023-04-30T17:26:51;21.60;93.00
10662;DHT22;5379;51.034;7.006;2023-04-30T17:29:18;21.40;92.90
10662;DHT22;5379;51.034;7.006;2023-04-30T17:31:45;21.20;93.40
10662;DHT22;5379;51.034;7.006;2023-04-30T17:34:12;20.90;93.00
10662;DHT22;5379;51.034;7.006;2023-04-30T17:36:39;21.20;93.60
10662;DHT22;5379;51.034;7.006;2023-04-30T17:39:06;21.10;93.20
10662;DHT22;5379;51.034;7.006;2023-04-30T17:41:34;20.90;93.20
10662;DHT22;5379;51.034;7.006;2023-04-30T17:44:02;20.90;93.20
10662;DHT22;5379;51.034;7.006;2023-04-30T17:46:30;20.90;95.40
10662;DHT22;5379;51.034;7.006;2023-04-30T17:48:57;21.10;93.30
10662;DHT22;5379;51.034;7.006;2023-04-30T17:51:26;20.70;93.30
10662;DHT22;5379;51.034;7.006;2023-04-30T17:53:53;20.70;93.60
10662;DHT22;5379;51.034;7.006;2023-04-30T17:56:21;20.90;93.50
10662;DHT22;5379;51.034;7.006;2023-04-30T17:58:49;21.50;93.90
10662;DHT22;5379;51.034;7.006;2023-04-30T18:01:17;21.30;93.10
10662;DHT22;5379;51.034;7.006;2023-04-30T18:03:44;20.90;93.30
10662;DHT22;5379;51.034;7.006;2023-04-30T18:06:11;20.70;93.70
10662;DHT22;5379;51.034;7.006;2023-04-30T18:08:38;20.80;93.30
10662;DHT22;5379;51.034;7.006;2023-04-30T18:11:06;20.60;94.20
10662;DHT22;5379;51.034;7.006;2023-04-30T18:13:34;20.20;93.20
10662;DHT22;5379;51.034;7.006;2023-04-30T18:16:05;20.10;93.80
10662;DHT22;5379;51.034;7.006;2023-04-30T18:18:34;20.00;94.00
10662;DHT22;5379;51.034;7.006;2023-04-30T18:21:02;20.40;93.70
10662;DHT22;5379;51.034;7.006;2023-04-30T18:23:31;20.10;93.50
10662;DHT22;5379;51.034;7.006;2023-04-30T18:25:58;19.90;94.60
10662;DHT22;5379;51.034;7.006;2023-04-30T18:28:27;19.80;93.70
10662;DHT22;5379;51.034;7.006;2023-04-30T18:30:54;20.10;93.70
10662;DHT22;5379;51.034;7.006;2023-04-30T18:33:21;20.40;96.80
10662;DHT22;5379;51.034;7.006;2023-04-30T18:35:51;20.30;93.40
10662;DHT22;5379;51.034;7.006;2023-04-30T18:38:18;20.20;93.60
10662;DHT22;5379;51.034;7.006;2023-04-30T18:40:45;20.50;93.30
10662;DHT22;5379;51.034;7.006;2023-04-30T18:43:12;20.50;94.20
10662;DHT22;5379;51.034;7.006;2023-04-30T18:45:41;21.30;96.30
10662;DHT22;5379;51.034;7.006;2023-04-30T18:48:08;20.70;93.20
10662;DHT22;5379;51.034;7.006;2023-04-30T18:50:35;20.20;93.50
10662;DHT22;5379;51.034;7.006;2023-04-30T18:53:04;20.30;95.80
10662;DHT22;5379;51.034;7.006;2023-04-30T18:55:32;20.60;93.70
10662;DHT22;5379;51.034;7.006;2023-04-30T18:57:59;20.80;93.60
10662;DHT22;5379;51.034;7.006;2023-04-30T19:00:26;19.90;93.50
10662;DHT22;5379;51.034;7.006;2023-04-30T19:02:53;19.70;94.30
10662;DHT22;5379;51.034;7.006;2023-04-30T19:05:20;19.70;93.40
10662;DHT22;5379;51.034;7.006;2023-04-30T19:07:47;19.70;93.70
10662;DHT22;5379;51.034;7.006;2023-04-30T19:10:15;19.80;97.40
10662;DHT22;5379;51.034;7.006;2023-04-30T19:12:42;19.90;95.40
10662;DHT22;5379;51.034;7.006;2023-04-30T19:15:10;20.30;96.80
10662;DHT22;5379;51.034;7.006;2023-04-30T19:17:39;20.30;93.50
10662;DHT22;5379;51.034;7.006;2023-04-30T19:20:07;19.80;93.70
10662;DHT22;5379;51.034;7.006;2023-04-30T19:22:34;19.80;94.00
10662;DHT22;5379;51.034;7.006;2023-04-30T19:25:02;19.60;93.80
10662;DHT22;5379;51.034;7.006;2023-04-30T19:27:31;19.70;94.00
10662;DHT22;5379;51.034;7.006;2023-04-30T19:29:58;20.10;94.20
10662;DHT22;5379;51.034;7.006;2023-04-30T19:32:25;20.80;96.20
10662;DHT22;5379;51.034;7.006;2023-04-30T19:34:54;20.50;92.90
10662;DHT22;5379;51.034;7.006;2023-04-30T19:37:23;20.00;93.40
10662;DHT22;5379;51.034;7.006;2023-04-30T19:39:51;20.00;94.80
10662;DHT22;5379;51.034;7.006;2023-04-30T19:42:18;20.20;93.50
10662;DHT22;5379;51.034;7.006;2023-04-30T19:44:46;20.30;95.20
10662;DHT22;5379;51.034;7.006;2023-04-30T19:47:13;20.50;94.20
10662;DHT22;5379;51.034;7.006;2023-04-30T19:49:40;20.10;93.90
10662;DHT22;5379;51.034;7.006;2023-04-30T19:52:09;20.00;93.60
10662;DHT22;5379;51.034;7.006;2023-04-30T19:54:36;19.70;93.70
10662;DHT22;5379;51.034;7.006;2023-04-30T19:57:02;19.70;95.30
10662;DHT22;5379;51.034;7.006;2023-04-30T19:59:29;19.80;94.50
10662;DHT22;5379;51.034;7.006;2023-04-30T20:01:58;19.60;94.20
10662;DHT22;5379;51.034;7.006;2023-04-30T20:04:25;19.50;94.20
10662;DHT22;5379;51.034;7.006;2023-04-30T20:06:52;19.60;94.50
10662;DHT22;5379;51.034;7.006;2023-04-30T20:09:21;19.40;94.50
10662;DHT22;5379;51.034;7.006;2023-04-30T20:11:48;19.30;94.60
10662;DHT22;5379;51.034;7.006;2023-04-30T20:14:16;19.70;94.90
10662;DHT22;5379;51.034;7.006;2023-04-30T20:16:43;19.50;93.90
10662;DHT22;5379;51.034;7.006;2023-04-30T20:19:12;19.30;94.20
10662;DHT22;5379;51.034;7.006;2023-04-30T20:21:38;19.10;94.30
10662;DHT22;5379;51.034;7.006;2023-04-30T20:24:05;19.30;94.50